ADDS METAR Data INFO
IDs: Format: Raw Decoded Include TAF

Data at: 2302 UTC 21 Feb 2018

KLBL 212256Z AUTO 06006KT 9SM OVC048 M03/M13 A3032 RMK AO2 SNB21E51 SLP301 P0000 T10281133 FZRANO
KLBL 212156Z AUTO 10SM OVC055 M03/M13 RMK AO2 SLPNO T10281133 FZRANO $
KLBL 212056Z AUTO 03008KT 10SM FEW065 OVC090 M03/M13 A3034 RMK AO2 SLP309 6//// T10331128 56031 FZRANO
KLBL 211956Z AUTO 03011KT 10SM BKN070 OVC090 M04/M14 A3036 RMK AO2 SNB1858E26 SLP316 P0000 T10441144 FZRANO
KLBL 211922Z AUTO 02010KT 9SM -SN SCT026 BKN036 OVC042 M05/M15 A3039 RMK AO2 SNB1858 P0000 FZRANO
KLBL 211914Z AUTO 04009KT 9SM BKN029 OVC035 M05/M16 A3040 RMK AO2 SNB1858E14 P0000 FZRANO
KLBL 211856Z AUTO 02012KT 10SM BKN035 OVC048 M06/M16 A3041 RMK AO2 SLP333 T10561161 FZRANO
KLBL 211756Z AUTO 01010KT 10SM FEW026 BKN046 OVC060 M07/M17 A3044 RMK AO2 SLP346 6//// T10671167 11067 21106 58002 FZRANO
KLBL 211656Z AUTO 03011KT 10SM FEW036 SCT043 OVC055 M07/M17 A3044 RMK AO2 SLP346 T10721167 FZRANO
KLBL 211556Z AUTO 03010KT 10SM BKN042 OVC055 M09/M17 A3046 RMK AO2 SNB39E49 SLP354 P0000 T10891172 FZRANO
KLBL 211456Z AUTO 01011KT 10SM OVC060 M09/M17 A3045 RMK AO2 SLP350 6//// T10941167 52014 FZRANO
KLBL 211356Z AUTO 02014KT 10SM OVC070 M11/M17 A3043 RMK AO2 SLP343 T11061167 FZRANO
KLBL 211256Z AUTO 04009KT 10SM BKN070 OVC120 M11/M17 A3043 RMK AO2 SLP340 T11061167 FZRANO
KLBL 210756Z AUTO 02016KT 10SM OVC085 M08/M17 A3037 RMK AO2 SNE0658 SLP315 P0000 T10781172 FZRANO
KLBL 210656Z AUTO 01016KT 9SM -SN FEW055 OVC100 M07/M17 A3036 RMK AO2 SNB20 SLP312 P0000 T10721167 FZRANO
KLBL 210556Z AUTO 02015KT 10SM OVC085 M07/M17 A3036 RMK AO2 SLP311 T10671172 11017 21067 400171100 51037 FZRANO
KLBL 201456Z AUTO 35021G24KT 9SM -SN FEW016 OVC024 M09/M13 A3007 RMK AO2 PK WND 35027/1453 SLP211 P0000 60000 T10941133 51044 FZRANO
KLBL 201407Z AUTO 36014KT 9SM -SN BKN015 OVC020 M09/M12 A3004 RMK AO2 P0000 FZRANO
KLBL 201356Z AUTO 36014KT 9SM -SN BKN013 OVC020 M10/M12 A3003 RMK AO2 SLP198 P0000 T11001117 FZRANO
KLBL 201256Z AUTO 36017KT 9SM -SN OVC011 M09/M12 A2998 RMK AO2 SLP181 P0000 T10941117 FZRANO
KLBL 201226Z AUTO 36018KT 9SM -SN BKN010 OVC018 M09/M11 A2995 RMK AO2 P0000 FZRANO
KLBL 201156Z AUTO 35021G24KT 9SM -SN OVC008 M09/M11 A2993 RMK AO2 PK WND 35026/1127 UPE27SNB27 CIG 007V012 SLP160 P0000 60000 7//// T10941106 11022 21094 53040 FZRANO